Addington, Oklahoma
Current Conditions -  °F | °C
As of 8:35 PM on Friday 21 Nov 2014 (Local Time) from KDUC Reporting Station
Overcast Overcast  
Wind Chill: 61°   Ceiling: 1000
Heat Index: 61°   Visibility: 7mi
Dew Point: 61°   Wind: 9mph
Humidity: 100%   Direction: 140°SE
Pressure: 30.04"   Gusts: NA
Location:  34.24°N, 97.97°W
Report Text: KDUC 220235Z AUTO 14008KT 7SM OVC010 16/16 A3004 RMK AO2
Loading
Personal Weather Stations






























Interactive Weather Map New forecast layout! Learn more

10-Day Weather Forecast

Advertisements
Track Severe Weather on mobile